createdAt,value
2022-08-05T00:01:28.581Z,75323.03
2022-08-05T00:03:57.166Z,75323.03
2022-08-05T00:06:32.494Z,75334.97
2022-08-05T00:09:00.503Z,75334.97
2022-08-05T00:11:30.628Z,75332.97
2022-08-05T00:14:02.509Z,75344.88
2022-08-05T00:16:53.030Z,75332.97
2022-08-05T00:21:53.945Z,75348.88
2022-08-05T00:24:24.707Z,75350.84
2022-08-05T00:26:57.526Z,75358.78
2022-08-05T00:29:25.725Z,75360.78
2022-08-05T00:32:12.651Z,75358.78
2022-08-05T00:34:54.079Z,75354.81
2022-08-05T00:37:50.775Z,75348.88
2022-08-05T00:40:14.504Z,75362.75
2022-08-05T00:42:48.238Z,75374.69
2022-08-05T00:45:15.954Z,75374.69
2022-08-05T00:47:56.322Z,75376.69
2022-08-05T00:50:25.450Z,75374.69
2022-08-05T00:52:53.352Z,75374.69
2022-08-05T00:55:21.735Z,75380.66
2022-08-05T00:57:55.458Z,75384.63
2022-08-05T01:00:26.014Z,75390.56
2022-08-05T01:02:52.965Z,75382.63
2022-08-05T01:05:19.724Z,75380.66
2022-08-05T01:08:41.886Z,75380.66
2022-08-05T01:10:41.788Z,75378.66
2022-08-05T01:13:57.373Z,75386.59
2022-08-05T01:16:49.245Z,75374.69
2022-08-05T01:19:57.220Z,75388.59
2022-08-05T01:22:54.245Z,75388.59
2022-08-05T01:26:01.480Z,75398.53
2022-08-05T01:28:51.524Z,75414.41
2022-08-05T01:31:42.607Z,75412.44
2022-08-05T01:34:28.213Z,75412.44
2022-08-05T01:37:24.583Z,75416.41
2022-08-05T01:39:58.764Z,75422.34
2022-08-05T01:42:27.946Z,75396.53
2022-08-05T01:44:59.199Z,75390.56
2022-08-05T01:47:38.706Z,75402.50
2022-08-05T01:50:15.666Z,75416.41
2022-08-05T01:52:50.111Z,75398.53
2022-08-05T01:55:20.347Z,75408.47
2022-08-05T01:58:10.128Z,75428.31
2022-08-05T02:00:38.283Z,75430.31
2022-08-05T02:03:24.217Z,75430.31
2022-08-05T02:05:59.811Z,75436.28
2022-08-05T02:08:31.208Z,75438.25
2022-08-05T02:11:11.775Z,75430.31
2022-08-05T02:13:53.474Z,75440.25
2022-08-05T02:16:39.281Z,75438.25
2022-08-05T02:19:34.486Z,75440.25
2022-08-05T02:22:26.628Z,75444.22
2022-08-05T02:25:02.041Z,75444.22
2022-08-05T02:27:59.778Z,75458.13
2022-08-05T02:30:18.224Z,75462.09
2022-08-05T02:32:50.252Z,75468.06
2022-08-05T02:35:28.061Z,75462.09
2022-08-05T02:38:02.374Z,75489.91
2022-08-05T02:40:30.911Z,75476.00
2022-08-05T02:42:59.135Z,75489.91
2022-08-05T02:45:28.394Z,75489.91
2022-08-05T02:48:07.545Z,75507.78
2022-08-05T02:50:46.014Z,75513.75
2022-08-05T02:53:19.046Z,75509.78
2022-08-05T02:55:55.331Z,75517.72
2022-08-05T02:58:30.048Z,75533.59
2022-08-05T03:01:01.828Z,75503.81
2022-08-05T03:03:33.951Z,75507.78
2022-08-05T03:06:55.039Z,75499.84
2022-08-05T03:09:04.283Z,75495.88
2022-08-05T03:11:56.015Z,75499.84
2022-08-05T03:14:18.350Z,75499.84
2022-08-05T03:16:45.811Z,75517.72
2022-08-05T03:19:20.284Z,75509.78
2022-08-05T03:21:59.516Z,75517.72
2022-08-05T03:24:30.360Z,75517.72
2022-08-05T03:27:00.828Z,75517.72
2022-08-05T03:29:44.479Z,75521.69
2022-08-05T03:32:12.165Z,75525.66
2022-08-05T03:34:42.073Z,75541.56
2022-08-05T03:37:18.332Z,75549.50
2022-08-05T03:40:01.751Z,75555.47
2022-08-05T03:42:32.156Z,75549.50
2022-08-05T03:44:59.579Z,75553.47
2022-08-05T03:47:30.413Z,75547.50
2022-08-05T03:50:02.009Z,75553.47
2022-08-05T03:52:39.073Z,75567.38
2022-08-05T03:56:04.181Z,75569.38
2022-08-05T03:58:17.920Z,75573.34
2022-08-05T04:00:51.474Z,75575.31
2022-08-05T04:03:28.542Z,75581.28
2022-08-05T04:05:58.059Z,75589.22
2022-08-05T04:08:35.959Z,75585.25
2022-08-05T04:11:07.440Z,75587.25
2022-08-05T04:13:50.017Z,75587.25
2022-08-05T04:16:24.349Z,75589.22
2022-08-05T04:18:59.965Z,75577.31
2022-08-05T04:22:05.272Z,75579.31
2022-08-05T04:24:18.855Z,75571.34
2022-08-05T04:26:48.813Z,75581.28
2022-08-05T04:29:15.403Z,75585.25
2022-08-05T04:31:43.006Z,75579.31
2022-08-05T04:34:31.247Z,75567.38
2022-08-05T04:36:56.498Z,75537.59
2022-08-05T04:39:23.324Z,75547.50
2022-08-05T04:41:51.191Z,75561.41
2022-08-05T04:44:29.586Z,75565.41
2022-08-05T04:47:09.708Z,75565.41
2022-08-05T04:50:01.290Z,75565.41
2022-08-05T04:52:27.649Z,75557.44
2022-08-05T04:54:54.522Z,75551.50
2022-08-05T04:57:28.531Z,75547.50
2022-08-05T04:59:56.715Z,75535.59
2022-08-05T05:02:37.630Z,75519.69
2022-08-05T05:05:26.388Z,75513.75
2022-08-05T05:08:03.604Z,75505.78
2022-08-05T05:10:33.861Z,75515.72
2022-08-05T05:13:01.758Z,75513.75
2022-08-05T05:15:57.633Z,75485.94
2022-08-05T05:18:28.494Z,75470.03
2022-08-05T05:21:01.071Z,75458.13
2022-08-05T05:23:38.849Z,75444.22
2022-08-05T05:26:14.290Z,75438.25
2022-08-05T05:28:42.673Z,75420.38
2022-08-05T05:31:11.269Z,75396.53
2022-08-05T05:33:58.627Z,75382.63
2022-08-05T05:36:24.307Z,75366.75
2022-08-05T05:38:55.491Z,75358.78
2022-08-05T05:41:22.197Z,75350.84
2022-08-05T05:43:57.360Z,75350.84
2022-08-05T05:46:26.752Z,75340.91
2022-08-05T05:48:53.511Z,75327.00
2022-08-05T05:51:22.398Z,75321.06
2022-08-05T05:53:57.251Z,75307.16
2022-08-05T05:56:26.021Z,75291.25
2022-08-05T05:59:03.260Z,75285.28
2022-08-05T06:01:37.959Z,75271.38
2022-08-05T06:04:07.030Z,75281.31
2022-08-05T06:06:34.767Z,75279.34
2022-08-05T06:09:01.927Z,75255.50
2022-08-05T06:11:31.236Z,75235.63
2022-08-05T06:13:58.002Z,75209.81
2022-08-05T06:16:36.832Z,75203.84
2022-08-05T06:19:05.929Z,75199.88
2022-08-05T06:21:36.018Z,75209.81
2022-08-05T06:24:12.110Z,75203.84
2022-08-05T06:26:51.078Z,75213.78
2022-08-05T06:29:25.481Z,75219.75
2022-08-05T06:32:05.671Z,75243.59
2022-08-05T06:34:48.308Z,75255.50
2022-08-05T06:37:39.412Z,75267.41
2022-08-05T06:40:07.406Z,75285.28
2022-08-05T06:42:33.906Z,75269.41
2022-08-05T06:45:05.501Z,75275.38
2022-08-05T06:48:44.222Z,75243.59
2022-08-05T06:50:21.525Z,75223.72
2022-08-05T06:53:03.962Z,75219.75
2022-08-05T06:55:36.323Z,75189.94
2022-08-05T06:58:30.141Z,75168.09
2022-08-05T07:00:51.252Z,75152.22
2022-08-05T07:03:17.875Z,75132.34
2022-08-05T07:05:46.372Z,75132.34
2022-08-05T07:08:13.315Z,75112.47
2022-08-05T07:10:52.770Z,75112.47
2022-08-05T07:13:58.179Z,75108.50
2022-08-05T07:18:00.997Z,75088.66
2022-08-05T07:20:16.664Z,75072.75
2022-08-05T07:22:28.976Z,75048.91
2022-08-05T07:25:24.116Z,75038.97
2022-08-05T07:27:59.544Z,75015.16
2022-08-05T07:30:39.712Z,75011.19
2022-08-05T07:33:16.825Z,74999.25
2022-08-05T07:36:04.910Z,74993.31
2022-08-05T07:38:33.618Z,75023.09
2022-08-05T07:42:08.121Z,75007.22
2022-08-05T07:43:51.788Z,74969.47
2022-08-05T07:46:24.566Z,74917.81
2022-08-05T07:49:03.302Z,74905.91
2022-08-05T07:51:37.383Z,74880.09
2022-08-05T07:54:08.409Z,74868.16
2022-08-05T07:57:00.233Z,74874.13
2022-08-05T07:59:31.012Z,74874.13
2022-08-05T08:02:07.244Z,74866.19
2022-08-05T08:04:43.122Z,74856.25
2022-08-05T08:07:12.141Z,74856.25
2022-08-05T08:09:38.739Z,74862.22
2022-08-05T08:12:12.528Z,74854.25
2022-08-05T08:14:47.309Z,74856.25
2022-08-05T08:17:16.262Z,74842.34
2022-08-05T08:20:42.769Z,74874.13
2022-08-05T08:22:32.209Z,74897.97
2022-08-05T08:25:03.340Z,74899.94
2022-08-05T08:27:39.922Z,74907.91
2022-08-05T08:30:30.058Z,74874.13
2022-08-05T08:33:02.420Z,74882.06
2022-08-05T08:35:34.962Z,74874.13
2022-08-05T08:38:07.770Z,74872.13
2022-08-05T08:40:35.879Z,74872.13
2022-08-05T08:45:20.785Z,74899.94
2022-08-05T08:45:54.120Z,74921.78
2022-08-05T08:48:23.146Z,74903.91
2022-08-05T08:52:01.875Z,74901.94
2022-08-05T08:53:55.498Z,74886.03
2022-08-05T08:56:23.697Z,74882.06
2022-08-05T08:58:53.965Z,74888.03
2022-08-05T09:01:20.800Z,74856.25
2022-08-05T09:03:57.493Z,74864.19
2022-08-05T09:06:30.399Z,74834.41
2022-08-05T09:09:02.102Z,74848.31
2022-08-05T09:11:51.580Z,74856.25
2022-08-05T09:14:58.880Z,74852.28
2022-08-05T09:17:05.669Z,74854.25
2022-08-05T09:20:01.375Z,74870.16
2022-08-05T09:22:32.131Z,74870.16
2022-08-05T09:25:01.504Z,74870.16
2022-08-05T09:28:04.564Z,74834.41
2022-08-05T09:30:27.916Z,74794.69
2022-08-05T09:33:01.853Z,74786.75
2022-08-05T09:35:29.438Z,74770.84
2022-08-05T09:38:17.303Z,74784.75
2022-08-05T09:40:52.374Z,74818.50
2022-08-05T09:43:40.635Z,74816.53
2022-08-05T09:46:27.480Z,74790.72
2022-08-05T09:49:07.805Z,74804.63
2022-08-05T09:51:42.699Z,74852.28
2022-08-05T09:54:10.106Z,74850.28
2022-08-05T09:56:38.415Z,74866.19
2022-08-05T09:59:09.753Z,74838.38
2022-08-05T10:01:46.557Z,74822.50
2022-08-05T10:04:16.188Z,74858.25
2022-08-05T10:06:59.494Z,74862.22
2022-08-05T10:09:29.279Z,74905.91
2022-08-05T10:12:30.269Z,74895.97
2022-08-05T10:15:17.106Z,74907.91
2022-08-05T10:17:54.407Z,74937.69
2022-08-05T10:20:23.895Z,74979.41
2022-08-05T10:22:52.682Z,74983.38
2022-08-05T10:25:19.632Z,75015.16
2022-08-05T10:28:09.680Z,74997.28
2022-08-05T10:31:20.685Z,74991.31
2022-08-05T10:33:28.838Z,75009.19
2022-08-05T10:35:59.906Z,75040.97
2022-08-05T10:38:29.201Z,75031.03
2022-08-05T10:41:16.167Z,75062.81
2022-08-05T10:43:53.785Z,75094.59
2022-08-05T10:46:23.828Z,75092.63
2022-08-05T10:49:01.518Z,75094.59
2022-08-05T10:51:57.462Z,75116.44
2022-08-05T10:55:02.208Z,75176.03
2022-08-05T10:57:32.367Z,75195.91
2022-08-05T11:00:29.861Z,75255.50
2022-08-05T11:03:25.979Z,75289.28
2022-08-05T11:06:14.640Z,75237.63
2022-08-05T11:09:32.100Z,75221.72
2022-08-05T11:12:26.927Z,75267.41
2022-08-05T11:15:19.161Z,75273.38
2022-08-05T11:17:57.056Z,75327.00
2022-08-05T11:20:46.401Z,75346.88
2022-08-05T11:24:04.964Z,75348.88
2022-08-05T11:26:28.927Z,75342.91
2022-08-05T11:29:12.667Z,75394.56
2022-08-05T11:31:58.166Z,75466.06
2022-08-05T11:34:55.284Z,75515.72
2022-08-05T11:38:29.465Z,75509.78
2022-08-05T11:44:53.048Z,75525.66
2022-08-05T11:47:49.985Z,75489.91
2022-08-05T11:50:09.700Z,75456.13
2022-08-05T11:52:49.532Z,75410.44
2022-08-05T11:55:17.890Z,75370.72
2022-08-05T11:58:09.357Z,75336.94
2022-08-05T12:00:38.236Z,75293.25
2022-08-05T12:03:28.726Z,75277.34
2022-08-05T12:06:06.193Z,75267.41
2022-08-05T12:08:50.854Z,75241.59
2022-08-05T12:11:40.335Z,75251.53
2022-08-05T12:14:10.215Z,75259.47
2022-08-05T12:16:39.920Z,75267.41
2022-08-05T12:19:09.958Z,75279.34
2022-08-05T12:21:57.120Z,75269.41
2022-08-05T12:24:24.599Z,75261.47
2022-08-05T12:26:53.256Z,75261.47
2022-08-05T12:29:24.945Z,75235.63
2022-08-05T12:31:56.906Z,75219.75
2022-08-05T12:34:28.456Z,75203.84
2022-08-05T12:36:57.447Z,75170.09
2022-08-05T12:39:28.026Z,75144.25
2022-08-05T12:42:01.352Z,75098.56
2022-08-05T12:44:33.377Z,75098.56
2022-08-05T12:47:01.826Z,75072.75
2022-08-05T12:50:04.782Z,75096.59
2022-08-05T12:52:33.863Z,75098.56
2022-08-05T12:55:18.153Z,75092.63
2022-08-05T12:58:51.396Z,75104.53
2022-08-05T13:02:01.517Z,75086.66
2022-08-05T13:03:41.566Z,75088.66
2022-08-05T13:06:19.822Z,75068.78
2022-08-05T13:08:52.421Z,75060.84
2022-08-05T13:11:59.801Z,75062.81
2022-08-05T13:14:19.566Z,75064.81
2022-08-05T13:16:58.735Z,75025.09
2022-08-05T13:19:51.691Z,74989.34
2022-08-05T13:22:15.032Z,74989.34
2022-08-05T13:24:58.017Z,74991.31
2022-08-05T13:27:39.098Z,74985.34
2022-08-05T13:30:35.429Z,74963.50
2022-08-05T13:33:01.285Z,74941.66
2022-08-05T13:35:43.250Z,74921.78
2022-08-05T13:38:28.369Z,74909.88
2022-08-05T13:41:00.911Z,74890.00
2022-08-05T13:43:45.410Z,74895.97
2022-08-05T13:46:16.273Z,74890.00
2022-08-05T13:49:00.342Z,74874.13
2022-08-05T13:51:40.108Z,74860.22
2022-08-05T13:54:13.171Z,74838.38
2022-08-05T13:56:50.580Z,74818.50
2022-08-05T13:59:24.375Z,74816.53
2022-08-05T14:01:57.847Z,74792.69
2022-08-05T14:04:51.748Z,74796.66
2022-08-05T14:07:26.492Z,74784.75
2022-08-05T14:10:14.253Z,74758.94
2022-08-05T14:12:48.730Z,74721.19
2022-08-05T14:16:05.834Z,74695.38
2022-08-05T14:18:03.863Z,74643.75
2022-08-05T14:20:31.263Z,74633.81
2022-08-05T14:22:58.975Z,74617.91
2022-08-05T14:25:28.004Z,74619.91
2022-08-05T14:27:55.428Z,74611.97
2022-08-05T14:30:22.734Z,74596.06
2022-08-05T14:32:53.041Z,74623.88
2022-08-05T14:35:20.540Z,74675.50
2022-08-05T14:37:51.015Z,74747.00
2022-08-05T14:40:24.492Z,74790.72
2022-08-05T14:42:51.791Z,74822.50
2022-08-05T14:45:18.528Z,74850.28
2022-08-05T14:48:05.197Z,74858.25
2022-08-05T14:50:32.030Z,74876.13
2022-08-05T14:52:59.575Z,74874.13
2022-08-05T14:55:38.759Z,74882.06
2022-08-05T14:58:11.097Z,74884.06
2022-08-05T15:00:38.590Z,74888.03
2022-08-05T15:03:06.124Z,74915.84
2022-08-05T15:06:07.276Z,74957.56
2022-08-05T15:08:58.035Z,74989.34
2022-08-05T15:11:09.343Z,74981.38
2022-08-05T15:13:46.222Z,75005.22
2022-08-05T15:16:16.855Z,75040.97
2022-08-05T15:18:43.770Z,75064.81
2022-08-05T15:21:13.959Z,75066.78
2022-08-05T15:23:40.518Z,75094.59
2022-08-05T15:26:07.043Z,75108.50
2022-08-05T15:28:33.956Z,75114.47
2022-08-05T15:31:00.549Z,75124.41
2022-08-05T15:34:04.760Z,75126.38
2022-08-05T15:36:24.577Z,75144.25
2022-08-05T15:40:41.192Z,75146.25
2022-08-05T15:41:55.730Z,75172.06
2022-08-05T15:44:25.712Z,75166.09
2022-08-05T15:46:54.180Z,75182.00
2022-08-05T15:49:41.837Z,75189.94
2022-08-05T15:52:13.683Z,75203.84
2022-08-05T15:54:42.975Z,75205.84
2022-08-05T15:57:09.798Z,75213.78
2022-08-05T15:59:38.074Z,75231.66
2022-08-05T16:02:09.184Z,75223.72
2022-08-05T16:04:36.542Z,75219.75
2022-08-05T16:07:03.445Z,75225.69
2022-08-05T16:09:32.496Z,75237.63
2022-08-05T16:11:59.208Z,75231.66
2022-08-05T16:14:26.110Z,75243.59
2022-08-05T16:16:55.468Z,75243.59
2022-08-05T16:20:02.806Z,75239.59
2022-08-05T16:22:11.113Z,75267.41
2022-08-05T16:24:52.174Z,75275.38
2022-08-05T16:27:19.107Z,75287.28
2022-08-05T16:29:58.853Z,75303.16
2022-08-05T16:32:29.606Z,75321.06
2022-08-05T16:34:59.744Z,75319.06
2022-08-05T16:38:15.524Z,75330.97
2022-08-05T16:40:26.491Z,75352.84
2022-08-05T16:42:55.992Z,75380.66
2022-08-05T16:46:04.213Z,75390.56
2022-08-05T16:48:10.258Z,75398.53
2022-08-05T16:50:37.116Z,75386.59
2022-08-05T16:53:12.361Z,75374.69
2022-08-05T16:55:49.445Z,75392.56
2022-08-05T16:58:19.839Z,75410.44
2022-08-05T17:00:48.158Z,75468.06
2022-08-05T17:03:20.028Z,75489.91
2022-08-05T17:05:51.850Z,75493.88
2022-08-05T17:08:35.957Z,75509.78
2022-08-05T17:11:16.495Z,75499.84
2022-08-05T17:13:43.341Z,75493.88
2022-08-05T17:16:29.718Z,75491.88
2022-08-05T17:18:57.105Z,75497.84
2022-08-05T17:21:23.966Z,75491.88
2022-08-05T17:24:04.425Z,75493.88
2022-08-05T17:26:36.340Z,75497.84
2022-08-05T17:29:09.812Z,75513.75
2022-08-05T17:31:57.019Z,75513.75
2022-08-05T17:34:30.238Z,75541.56
2022-08-05T17:37:01.984Z,75565.41
2022-08-05T17:39:33.999Z,75563.41
2022-08-05T17:42:19.801Z,75593.22
2022-08-05T17:44:50.290Z,75642.88
2022-08-05T17:47:21.891Z,75650.81
2022-08-05T17:50:04.050Z,75678.63
2022-08-05T17:52:53.201Z,75674.66
2022-08-05T17:55:22.451Z,75716.38
2022-08-05T17:57:54.172Z,75708.44
2022-08-05T18:00:20.752Z,75740.22
2022-08-05T18:02:58.437Z,75768.03
2022-08-05T18:05:28.229Z,75799.81
2022-08-05T18:08:01.789Z,75841.53
2022-08-05T18:10:28.611Z,75839.56
2022-08-05T18:12:59.938Z,75881.28
2022-08-05T18:15:34.167Z,75891.22
2022-08-05T18:18:05.556Z,75911.06
2022-08-05T18:20:37.799Z,75923.00
2022-08-05T18:23:09.475Z,75954.78
2022-08-05T18:25:45.201Z,75978.63
2022-08-05T18:28:17.591Z,76004.47
2022-08-05T18:30:50.886Z,76010.41
2022-08-05T18:33:22.409Z,76034.25
2022-08-05T18:36:00.670Z,76042.22
2022-08-05T18:38:32.398Z,76072.00
2022-08-05T18:41:56.358Z,76081.94
2022-08-05T18:43:48.973Z,76076.00
2022-08-05T18:46:20.315Z,76072.00
2022-08-05T18:48:54.076Z,76089.91
2022-08-05T18:52:06.151Z,76093.88
2022-08-05T18:54:27.624Z,76117.72
2022-08-05T18:57:01.906Z,76119.69
2022-08-05T19:02:26.847Z,76121.69
2022-08-05T19:06:13.250Z,76127.66
2022-08-05T19:08:00.356Z,76145.53
2022-08-05T19:10:28.533Z,76161.44
2022-08-05T19:12:58.586Z,76171.34
2022-08-05T19:16:00.011Z,76187.25
2022-08-05T19:18:21.824Z,76205.13
2022-08-05T19:20:52.159Z,76205.13
2022-08-05T19:24:04.501Z,76211.09
2022-08-05T19:26:05.491Z,76238.91
2022-08-05T19:28:41.661Z,76240.91
2022-08-05T19:31:09.392Z,76248.84
2022-08-05T19:33:40.627Z,76262.75
2022-08-05T19:36:17.918Z,76290.56
2022-08-05T19:38:44.932Z,76330.31
2022-08-05T19:41:11.526Z,76318.41
2022-08-05T19:44:06.518Z,76340.25
2022-08-05T19:46:29.187Z,76374.03
2022-08-05T19:49:01.241Z,76397.88
2022-08-05T19:52:06.011Z,76393.91
2022-08-05T19:54:28.471Z,76407.81
2022-08-05T19:57:02.261Z,76411.78
2022-08-05T19:59:59.609Z,76403.84
2022-08-05T20:02:17.700Z,76419.72
2022-08-05T20:04:46.187Z,76403.84
2022-08-05T20:07:15.413Z,76411.78
2022-08-05T20:09:53.929Z,76391.91
2022-08-05T20:12:20.895Z,76407.81
2022-08-05T20:14:49.529Z,76419.72
2022-08-05T20:17:19.350Z,76429.66
2022-08-05T20:19:50.782Z,76441.59
2022-08-05T20:22:24.110Z,76445.56
2022-08-05T20:24:53.682Z,76463.44
2022-08-05T20:27:21.119Z,76475.38
2022-08-05T20:29:58.411Z,76467.44
2022-08-05T20:32:26.897Z,76471.41
2022-08-05T20:34:54.113Z,76469.41
2022-08-05T20:38:04.586Z,76479.34
2022-08-05T20:40:08.566Z,76499.22
2022-08-05T20:42:35.520Z,76503.19
2022-08-05T20:45:02.648Z,76517.09
2022-08-05T20:47:31.774Z,76517.09
2022-08-05T20:49:58.890Z,76519.09
2022-08-05T20:52:25.812Z,76523.06
2022-08-05T20:54:59.464Z,76533.00
2022-08-05T20:57:43.511Z,76531.00
2022-08-05T21:00:40.523Z,76523.06
2022-08-05T21:03:01.256Z,76538.97
2022-08-05T21:05:28.546Z,76544.94
2022-08-05T21:08:15.150Z,76558.84
2022-08-05T21:10:48.955Z,76564.78
2022-08-05T21:13:26.004Z,76568.78
2022-08-05T21:16:03.701Z,76572.75
2022-08-05T21:18:30.509Z,76568.78
2022-08-05T21:20:57.544Z,76576.72
2022-08-05T21:23:24.782Z,76580.69
2022-08-05T21:25:51.705Z,76586.66
2022-08-05T21:28:23.848Z,76588.63
2022-08-05T21:30:50.818Z,76606.53
2022-08-05T21:33:22.615Z,76604.53
2022-08-05T21:35:58.529Z,76604.53
2022-08-05T21:38:26.635Z,76620.44
2022-08-05T21:40:53.273Z,76626.41
2022-08-05T21:43:24.421Z,76630.38
2022-08-05T21:45:57.360Z,76640.31
2022-08-05T21:48:27.581Z,76644.28
2022-08-05T21:50:57.174Z,76638.31
2022-08-05T21:53:27.344Z,76642.28
2022-08-05T21:56:05.423Z,76640.31
2022-08-05T21:58:42.565Z,76652.22
2022-08-05T22:01:26.738Z,76648.25
2022-08-05T22:03:56.225Z,76646.28
2022-08-05T22:06:35.485Z,76646.28
2022-08-05T22:09:13.576Z,76654.22
2022-08-05T22:11:43.658Z,76662.16
2022-08-05T22:14:33.227Z,76674.09
2022-08-05T22:17:03.885Z,76664.16
2022-08-05T22:20:00.793Z,76672.09
2022-08-05T22:22:26.699Z,76678.06
2022-08-05T22:25:21.313Z,76680.06
2022-08-05T22:28:08.639Z,76690.00
2022-08-05T22:30:55.628Z,76686.00
2022-08-05T22:33:58.308Z,76680.06
2022-08-05T22:36:11.331Z,76682.03
2022-08-05T22:38:42.551Z,76699.94
2022-08-05T22:41:10.244Z,76691.97
2022-08-05T22:43:38.120Z,76713.84
2022-08-05T22:46:13.406Z,76711.84
2022-08-05T22:48:42.026Z,76709.88
2022-08-05T22:53:51.267Z,76701.91
2022-08-05T22:59:44.223Z,76721.78
2022-08-05T23:02:29.583Z,76721.78
2022-08-05T23:05:02.039Z,76727.75
2022-08-05T23:07:44.060Z,76725.75
2022-08-05T23:10:15.015Z,76729.75
2022-08-05T23:12:44.208Z,76757.56
2022-08-05T23:15:12.728Z,76761.53
2022-08-05T23:18:00.876Z,76767.50
2022-08-05T23:20:26.296Z,76773.47
2022-08-05T23:22:56.130Z,76775.44
2022-08-05T23:25:53.688Z,76777.44
2022-08-05T23:28:10.828Z,76795.31
2022-08-05T23:30:43.552Z,76797.31
2022-08-05T23:33:21.894Z,76801.28
2022-08-05T23:35:52.548Z,76821.16
2022-08-05T23:38:26.849Z,76821.16
2022-08-05T23:40:53.592Z,76821.16
2022-08-05T23:43:24.437Z,76819.16
2022-08-05T23:46:20.703Z,76825.13
2022-08-05T23:48:59.667Z,76831.09
2022-08-05T23:51:52.474Z,76831.09
2022-08-05T23:54:26.030Z,76835.06
2022-08-05T23:57:03.281Z,76848.97
